sensor_id;sensor_type;location;lat;lon;timestamp;noise_LAeq;noise_LA_min;noise_LA_max;noise_LA01;noise_LA95
72415;Laerm;60995;52.154;4.498;2022-09-12T00:00:22;43.21;37.46;51.67;;
72415;Laerm;60995;52.154;4.498;2022-09-12T00:02:38;43.28;37.24;51.55;;
72415;Laerm;60995;52.154;4.498;2022-09-12T00:04:54;43.21;38.37;50.92;;
72415;Laerm;60995;52.154;4.498;2022-09-12T00:07:11;42.35;36.56;50.54;;
72415;Laerm;60995;52.154;4.498;2022-09-12T00:09:30;42.62;36.94;51.24;;
72415;Laerm;60995;52.154;4.498;2022-09-12T00:11:46;43.69;37.41;51.70;;
72415;Laerm;60995;52.154;4.498;2022-09-12T00:14:04;42.79;36.49;54.04;;
72415;Laerm;60995;52.154;4.498;2022-09-12T00:16:27;42.85;36.79;51.42;;
72415;Laerm;60995;52.154;4.498;2022-09-12T00:18:44;43.41;38.17;51.74;;
72415;Laerm;60995;52.154;4.498;2022-09-12T00:21:03;43.17;37.39;51.66;;
72415;Laerm;60995;52.154;4.498;2022-09-12T00:23:20;43.39;38.10;52.16;;
72415;Laerm;60995;52.154;4.498;2022-09-12T00:25:42;43.67;37.01;54.17;;
72415;Laerm;60995;52.154;4.498;2022-09-12T00:27:58;43.40;37.64;51.03;;
72415;Laerm;60995;52.154;4.498;2022-09-12T00:30:15;44.22;37.65;52.70;;
72415;Laerm;60995;52.154;4.498;2022-09-12T00:32:31;44.44;37.89;53.80;;
72415;Laerm;60995;52.154;4.498;2022-09-12T00:34:47;44.20;38.18;53.59;;
72415;Laerm;60995;52.154;4.498;2022-09-12T00:37:04;43.45;36.85;54.84;;
72415;Laerm;60995;52.154;4.498;2022-09-12T00:39:20;43.04;36.97;52.31;;
72415;Laerm;60995;52.154;4.498;2022-09-12T00:41:39;44.22;38.52;52.77;;
72415;Laerm;60995;52.154;4.498;2022-09-12T00:43:59;42.71;37.17;52.18;;
72415;Laerm;60995;52.154;4.498;2022-09-12T00:46:33;42.16;36.99;53.25;;
72415;Laerm;60995;52.154;4.498;2022-09-12T00:48:57;42.40;36.87;51.51;;
72415;Laerm;60995;52.154;4.498;2022-09-12T00:51:17;42.99;36.70;51.22;;
72415;Laerm;60995;52.154;4.498;2022-09-12T00:53:34;44.14;38.04;51.75;;
72415;Laerm;60995;52.154;4.498;2022-09-12T00:55:52;44.57;38.34;51.60;;
72415;Laerm;60995;52.154;4.498;2022-09-12T00:58:19;44.01;37.85;53.59;;
72415;Laerm;60995;52.154;4.498;2022-09-12T01:00:37;44.46;37.40;56.90;;
72415;Laerm;60995;52.154;4.498;2022-09-12T01:03:06;44.04;38.18;52.70;;
72415;Laerm;60995;52.154;4.498;2022-09-12T01:05:25;44.42;38.31;52.93;;
72415;Laerm;60995;52.154;4.498;2022-09-12T01:07:43;43.71;37.32;52.21;;
72415;Laerm;60995;52.154;4.498;2022-09-12T01:10:06;44.98;38.63;55.16;;
72415;Laerm;60995;52.154;4.498;2022-09-12T01:12:23;45.03;38.28;54.81;;
72415;Laerm;60995;52.154;4.498;2022-09-12T01:14:41;44.52;38.42;52.98;;
72415;Laerm;60995;52.154;4.498;2022-09-12T01:16:58;44.14;37.97;51.31;;
72415;Laerm;60995;52.154;4.498;2022-09-12T01:19:51;45.18;38.24;53.05;;
72415;Laerm;60995;52.154;4.498;2022-09-12T01:28:54;45.11;39.29;52.53;;
72415;Laerm;60995;52.154;4.498;2022-09-12T01:31:24;45.43;38.44;55.67;;
72415;Laerm;60995;52.154;4.498;2022-09-12T01:36:35;47.21;40.61;54.64;;
72415;Laerm;60995;52.154;4.498;2022-09-12T01:42:10;47.57;40.12;54.81;;
72415;Laerm;60995;52.154;4.498;2022-09-12T01:45:02;45.60;39.85;54.18;;
72415;Laerm;60995;52.154;4.498;2022-09-12T01:47:39;46.01;39.76;56.63;;
72415;Laerm;60995;52.154;4.498;2022-09-12T01:50:03;45.88;39.13;56.11;;
72415;Laerm;60995;52.154;4.498;2022-09-12T01:52:31;45.58;38.01;54.97;;
72415;Laerm;60995;52.154;4.498;2022-09-12T01:55:12;45.07;39.24;52.05;;
72415;Laerm;60995;52.154;4.498;2022-09-12T01:58:05;44.31;38.49;53.36;;
72415;Laerm;60995;52.154;4.498;2022-09-12T02:00:23;45.60;38.77;58.41;;
72415;Laerm;60995;52.154;4.498;2022-09-12T02:03:17;45.35;39.29;53.07;;
72415;Laerm;60995;52.154;4.498;2022-09-12T02:05:48;45.51;39.08;51.24;;
72415;Laerm;60995;52.154;4.498;2022-09-12T02:08:12;45.63;40.47;52.70;;
72415;Laerm;60995;52.154;4.498;2022-09-12T02:10:34;45.85;39.79;54.86;;
72415;Laerm;60995;52.154;4.498;2022-09-12T02:13:21;44.64;39.00;52.07;;
72415;Laerm;60995;52.154;4.498;2022-09-12T02:15:49;44.75;39.15;51.66;;
72415;Laerm;60995;52.154;4.498;2022-09-12T02:18:12;45.62;39.97;53.99;;
72415;Laerm;60995;52.154;4.498;2022-09-12T02:20:35;45.46;39.41;52.81;;
72415;Laerm;60995;52.154;4.498;2022-09-12T02:22:55;45.36;38.84;53.35;;
72415;Laerm;60995;52.154;4.498;2022-09-12T02:25:18;46.01;40.73;52.99;;
72415;Laerm;60995;52.154;4.498;2022-09-12T02:27:44;44.32;38.41;53.06;;
72415;Laerm;60995;52.154;4.498;2022-09-12T02:30:01;45.48;39.30;51.26;;
72415;Laerm;60995;52.154;4.498;2022-09-12T02:32:42;45.49;39.83;53.86;;
72415;Laerm;60995;52.154;4.498;2022-09-12T02:35:21;45.66;39.93;52.09;;
72415;Laerm;60995;52.154;4.498;2022-09-12T02:40:00;46.21;40.63;52.87;;
72415;Laerm;60995;52.154;4.498;2022-09-12T02:42:16;46.41;40.40;56.07;;
72415;Laerm;60995;52.154;4.498;2022-09-12T02:44:34;45.48;39.74;52.71;;
72415;Laerm;60995;52.154;4.498;2022-09-12T02:47:02;46.62;40.04;55.98;;
72415;Laerm;60995;52.154;4.498;2022-09-12T02:49:19;45.22;39.21;54.73;;
72415;Laerm;60995;52.154;4.498;2022-09-12T02:51:36;46.05;39.77;57.15;;
72415;Laerm;60995;52.154;4.498;2022-09-12T02:53:53;46.01;39.59;58.61;;
72415;Laerm;60995;52.154;4.498;2022-09-12T02:56:18;47.57;41.84;58.99;;
72415;Laerm;60995;52.154;4.498;2022-09-12T02:58:37;49.11;42.24;60.87;;
72415;Laerm;60995;52.154;4.498;2022-09-12T03:03:57;49.29;42.24;71.87;;
72415;Laerm;60995;52.154;4.498;2022-09-12T03:09:36;47.78;42.39;53.93;;
72415;Laerm;60995;52.154;4.498;2022-09-12T03:20:28;48.52;43.67;55.22;;
72415;Laerm;60995;52.154;4.498;2022-09-12T03:22:57;51.60;43.66;74.27;;
72415;Laerm;60995;52.154;4.498;2022-09-12T03:25:22;50.16;44.53;56.98;;
72415;Laerm;60995;52.154;4.498;2022-09-12T03:28:12;50.10;44.11;57.36;;
72415;Laerm;60995;52.154;4.498;2022-09-12T03:30:29;50.92;45.63;56.83;;
72415;Laerm;60995;52.154;4.498;2022-09-12T03:32:53;49.45;43.84;55.33;;
72415;Laerm;60995;52.154;4.498;2022-09-12T03:35:11;49.47;44.22;56.08;;
72415;Laerm;60995;52.154;4.498;2022-09-12T03:37:27;51.45;45.91;59.36;;
72415;Laerm;60995;52.154;4.498;2022-09-12T03:39:44;51.08;46.04;56.28;;
72415;Laerm;60995;52.154;4.498;2022-09-12T03:42:00;51.59;47.29;56.52;;
72415;Laerm;60995;52.154;4.498;2022-09-12T03:44:17;51.48;46.27;58.02;;
72415;Laerm;60995;52.154;4.498;2022-09-12T03:46:34;51.18;45.88;58.35;;
72415;Laerm;60995;52.154;4.498;2022-09-12T03:48:50;51.85;45.28;57.74;;
72415;Laerm;60995;52.154;4.498;2022-09-12T03:51:09;52.95;47.51;58.83;;
72415;Laerm;60995;52.154;4.498;2022-09-12T03:53:26;51.66;46.15;57.40;;
72415;Laerm;60995;52.154;4.498;2022-09-12T03:55:42;52.08;46.15;58.20;;
72415;Laerm;60995;52.154;4.498;2022-09-12T03:57:59;52.89;46.95;58.52;;
72415;Laerm;60995;52.154;4.498;2022-09-12T04:00:15;52.68;47.57;59.93;;
72415;Laerm;60995;52.154;4.498;2022-09-12T04:02:31;52.47;46.62;57.83;;
72415;Laerm;60995;52.154;4.498;2022-09-12T04:04:48;52.36;47.35;57.40;;
72415;Laerm;60995;52.154;4.498;2022-09-12T04:07:04;52.21;47.42;57.06;;
72415;Laerm;60995;52.154;4.498;2022-09-12T04:09:20;52.82;47.93;58.48;;
72415;Laerm;60995;52.154;4.498;2022-09-12T04:11:36;51.71;46.79;57.77;;
72415;Laerm;60995;52.154;4.498;2022-09-12T04:13:53;51.68;46.29;58.47;;
72415;Laerm;60995;52.154;4.498;2022-09-12T04:16:10;51.00;46.10;57.58;;
72415;Laerm;60995;52.154;4.498;2022-09-12T04:18:30;50.64;45.85;57.27;;
72415;Laerm;60995;52.154;4.498;2022-09-12T04:20:46;50.98;46.28;56.98;;
72415;Laerm;60995;52.154;4.498;2022-09-12T04:23:02;51.48;46.88;62.25;;
72415;Laerm;60995;52.154;4.498;2022-09-12T04:25:18;53.65;48.36;64.42;;
72415;Laerm;60995;52.154;4.498;2022-09-12T04:27:35;52.50;47.57;58.30;;
72415;Laerm;60995;52.154;4.498;2022-09-12T04:29:51;53.61;48.21;60.73;;
72415;Laerm;60995;52.154;4.498;2022-09-12T04:32:10;53.33;47.74;59.73;;
72415;Laerm;60995;52.154;4.498;2022-09-12T04:34:30;52.86;48.39;60.41;;
72415;Laerm;60995;52.154;4.498;2022-09-12T04:36:47;52.94;48.01;59.38;;
72415;Laerm;60995;52.154;4.498;2022-09-12T04:39:04;53.61;48.28;59.25;;
72415;Laerm;60995;52.154;4.498;2022-09-12T04:41:30;53.44;48.21;59.79;;
72415;Laerm;60995;52.154;4.498;2022-09-12T04:43:53;53.00;47.82;57.72;;
72415;Laerm;60995;52.154;4.498;2022-09-12T04:46:12;53.38;49.10;60.17;;
72415;Laerm;60995;52.154;4.498;2022-09-12T04:48:30;54.60;49.06;61.66;;
72415;Laerm;60995;52.154;4.498;2022-09-12T04:50:46;53.82;48.90;61.41;;
72415;Laerm;60995;52.154;4.498;2022-09-12T04:53:02;54.79;50.12;59.41;;
72415;Laerm;60995;52.154;4.498;2022-09-12T04:55:20;55.49;49.68;68.48;;
72415;Laerm;60995;52.154;4.498;2022-09-12T04:57:36;55.44;50.65;60.16;;
72415;Laerm;60995;52.154;4.498;2022-09-12T04:59:52;55.85;50.78;60.52;;
72415;Laerm;60995;52.154;4.498;2022-09-12T05:02:09;54.72;49.89;60.79;;
72415;Laerm;60995;52.154;4.498;2022-09-12T05:04:25;53.63;48.44;58.80;;
72415;Laerm;60995;52.154;4.498;2022-09-12T05:06:42;53.88;48.64;59.30;;
72415;Laerm;60995;52.154;4.498;2022-09-12T05:09:00;54.00;49.34;59.71;;
72415;Laerm;60995;52.154;4.498;2022-09-12T05:11:21;53.43;48.14;58.27;;
72415;Laerm;60995;52.154;4.498;2022-09-12T05:13:38;54.64;50.28;59.87;;
72415;Laerm;60995;52.154;4.498;2022-09-12T05:16:01;55.36;50.61;66.90;;
72415;Laerm;60995;52.154;4.498;2022-09-12T05:18:18;54.71;49.96;59.22;;
72415;Laerm;60995;52.154;4.498;2022-09-12T05:20:34;54.37;49.53;59.61;;
72415;Laerm;60995;52.154;4.498;2022-09-12T05:22:50;54.78;49.70;59.95;;
72415;Laerm;60995;52.154;4.498;2022-09-12T05:25:08;53.72;49.35;62.49;;
72415;Laerm;60995;52.154;4.498;2022-09-12T05:27:24;53.88;48.69;61.71;;
72415;Laerm;60995;52.154;4.498;2022-09-12T05:29:40;54.91;49.15;64.36;;
72415;Laerm;60995;52.154;4.498;2022-09-12T05:31:58;54.83;49.16;62.65;;
72415;Laerm;60995;52.154;4.498;2022-09-12T05:34:14;56.05;49.02;70.75;;
72415;Laerm;60995;52.154;4.498;2022-09-12T05:36:30;54.25;48.49;62.79;;
72415;Laerm;60995;52.154;4.498;2022-09-12T05:38:47;53.81;49.07;59.40;;
72415;Laerm;60995;52.154;4.498;2022-09-12T05:41:06;54.35;48.69;76.61;;
72415;Laerm;60995;52.154;4.498;2022-09-12T05:43:22;53.30;48.31;62.53;;
72415;Laerm;60995;52.154;4.498;2022-09-12T05:45:39;53.27;48.60;61.22;;
72415;Laerm;60995;52.154;4.498;2022-09-12T05:47:58;53.82;47.90;58.07;;
72415;Laerm;60995;52.154;4.498;2022-09-12T05:50:14;53.04;48.85;62.03;;
72415;Laerm;60995;52.154;4.498;2022-09-12T05:52:31;54.71;47.54;70.91;;
72415;Laerm;60995;52.154;4.498;2022-09-12T05:54:47;52.95;47.73;68.98;;
72415;Laerm;60995;52.154;4.498;2022-09-12T05:57:04;53.32;47.98;60.68;;
72415;Laerm;60995;52.154;4.498;2022-09-12T05:59:21;53.81;49.12;62.83;;
72415;Laerm;60995;52.154;4.498;2022-09-12T06:01:39;53.69;48.68;61.26;;
72415;Laerm;60995;52.154;4.498;2022-09-12T06:04:01;54.31;48.59;71.34;;
72415;Laerm;60995;52.154;4.498;2022-09-12T06:06:21;53.78;48.33;62.41;;
72415;Laerm;60995;52.154;4.498;2022-09-12T06:08:41;54.29;48.32;66.52;;
72415;Laerm;60995;52.154;4.498;2022-09-12T06:11:03;55.90;50.10;64.17;;
72415;Laerm;60995;52.154;4.498;2022-09-12T06:13:20;54.51;49.55;62.32;;
72415;Laerm;60995;52.154;4.498;2022-09-12T06:15:37;55.22;50.16;62.67;;
72415;Laerm;60995;52.154;4.498;2022-09-12T06:17:53;54.86;49.16;65.62;;
72415;Laerm;60995;52.154;4.498;2022-09-12T06:20:09;55.20;48.62;69.12;;
72415;Laerm;60995;52.154;4.498;2022-09-12T06:22:25;55.17;49.94;65.14;;
72415;Laerm;60995;52.154;4.498;2022-09-12T06:24:45;53.18;48.73;61.53;;
72415;Laerm;60995;52.154;4.498;2022-09-12T06:27:01;53.59;47.96;72.08;;
72415;Laerm;60995;52.154;4.498;2022-09-12T06:29:18;53.87;48.56;64.00;;
72415;Laerm;60995;52.154;4.498;2022-09-12T06:31:38;55.25;48.66;65.22;;
72415;Laerm;60995;52.154;4.498;2022-09-12T06:33:59;55.61;48.99;65.07;;
72415;Laerm;60995;52.154;4.498;2022-09-12T06:36:26;53.42;48.92;61.40;;
72415;Laerm;60995;52.154;4.498;2022-09-12T06:38:43;54.05;48.77;62.29;;
72415;Laerm;60995;52.154;4.498;2022-09-12T06:41:06;55.98;49.79;67.50;;
72415;Laerm;60995;52.154;4.498;2022-09-12T06:43:22;55.66;50.48;65.21;;
72415;Laerm;60995;52.154;4.498;2022-09-12T06:45:38;56.50;50.54;64.53;;
72415;Laerm;60995;52.154;4.498;2022-09-12T06:47:55;56.69;51.09;72.08;;
72415;Laerm;60995;52.154;4.498;2022-09-12T06:50:11;56.59;49.67;66.76;;
72415;Laerm;60995;52.154;4.498;2022-09-12T06:52:28;56.75;52.24;66.30;;
72415;Laerm;60995;52.154;4.498;2022-09-12T06:54:44;56.26;50.36;70.32;;
72415;Laerm;60995;52.154;4.498;2022-09-12T06:57:02;56.26;50.87;64.23;;
72415;Laerm;60995;52.154;4.498;2022-09-12T06:59:19;55.15;49.59;61.60;;
72415;Laerm;60995;52.154;4.498;2022-09-12T07:01:35;56.32;50.59;64.44;;
72415;Laerm;60995;52.154;4.498;2022-09-12T07:03:56;56.13;48.96;66.38;;
72415;Laerm;60995;52.154;4.498;2022-09-12T07:06:15;55.25;50.02;62.45;;
72415;Laerm;60995;52.154;4.498;2022-09-12T07:08:33;54.58;48.68;64.43;;
72415;Laerm;60995;52.154;4.498;2022-09-12T07:10:49;55.29;48.81;61.55;;
72415;Laerm;60995;52.154;4.498;2022-09-12T07:13:05;54.76;48.94;61.21;;
72415;Laerm;60995;52.154;4.498;2022-09-12T07:15:22;54.00;48.56;58.82;;
72415;Laerm;60995;52.154;4.498;2022-09-12T07:17:38;52.65;46.89;59.07;;
72415;Laerm;60995;52.154;4.498;2022-09-12T07:19:54;53.47;47.36;61.49;;
72415;Laerm;60995;52.154;4.498;2022-09-12T07:22:11;52.48;45.82;59.01;;
72415;Laerm;60995;52.154;4.498;2022-09-12T07:24:27;52.25;46.55;59.43;;
72415;Laerm;60995;52.154;4.498;2022-09-12T07:26:45;51.39;44.94;59.93;;
72415;Laerm;60995;52.154;4.498;2022-09-12T07:29:02;52.72;46.15;61.51;;
72415;Laerm;60995;52.154;4.498;2022-09-12T07:31:21;51.70;44.39;63.75;;
72415;Laerm;60995;52.154;4.498;2022-09-12T07:33:40;49.59;42.93;58.63;;
72415;Laerm;60995;52.154;4.498;2022-09-12T07:36:02;50.53;43.85;59.67;;
72415;Laerm;60995;52.154;4.498;2022-09-12T07:38:22;52.14;42.98;60.49;;
72415;Laerm;60995;52.154;4.498;2022-09-12T07:40:39;53.85;42.32;64.43;;
72415;Laerm;60995;52.154;4.498;2022-09-12T07:42:55;50.38;40.89;59.92;;
72415;Laerm;60995;52.154;4.498;2022-09-12T07:45:11;49.71;41.51;64.25;;
72415;Laerm;60995;52.154;4.498;2022-09-12T07:47:28;49.83;41.00;60.39;;
72415;Laerm;60995;52.154;4.498;2022-09-12T07:49:44;51.07;41.52;62.94;;
72415;Laerm;60995;52.154;4.498;2022-09-12T07:52:01;52.87;40.86;69.47;;
72415;Laerm;60995;52.154;4.498;2022-09-12T07:54:17;49.29;41.08;60.02;;
72415;Laerm;60995;52.154;4.498;2022-09-12T07:56:34;49.32;39.80;62.10;;
72415;Laerm;60995;52.154;4.498;2022-09-12T07:58:50;51.68;41.76;76.92;;
72415;Laerm;60995;52.154;4.498;2022-09-12T08:01:15;49.47;41.35;59.57;;
72415;Laerm;60995;52.154;4.498;2022-09-12T08:03:32;49.44;41.79;58.96;;
72415;Laerm;60995;52.154;4.498;2022-09-12T08:05:48;50.03;41.49;61.13;;
72415;Laerm;60995;52.154;4.498;2022-09-12T08:08:05;50.49;41.01;62.68;;
72415;Laerm;60995;52.154;4.498;2022-09-12T08:10:22;49.95;39.84;63.87;;
72415;Laerm;60995;52.154;4.498;2022-09-12T08:12:38;50.31;42.39;60.41;;
72415;Laerm;60995;52.154;4.498;2022-09-12T08:14:54;51.01;40.60;70.00;;
72415;Laerm;60995;52.154;4.498;2022-09-12T08:17:11;49.84;40.09;60.28;;
72415;Laerm;60995;52.154;4.498;2022-09-12T08:19:27;50.51;40.77;61.13;;
72415;Laerm;60995;52.154;4.498;2022-09-12T08:21:43;49.63;40.40;60.17;;
72415;Laerm;60995;52.154;4.498;2022-09-12T08:24:04;50.01;40.97;65.56;;
72415;Laerm;60995;52.154;4.498;2022-09-12T08:26:21;49.86;41.11;63.21;;
72415;Laerm;60995;52.154;4.498;2022-09-12T08:28:39;49.81;41.85;59.68;;
72415;Laerm;60995;52.154;4.498;2022-09-12T08:31:07;50.20;40.93;61.39;;
72415;Laerm;60995;52.154;4.498;2022-09-12T08:33:24;49.43;40.70;59.85;;
72415;Laerm;60995;52.154;4.498;2022-09-12T08:35:42;50.18;40.81;61.22;;
72415;Laerm;60995;52.154;4.498;2022-09-12T08:37:58;51.41;41.45;61.12;;
72415;Laerm;60995;52.154;4.498;2022-09-12T08:40:16;50.92;42.20;61.53;;
72415;Laerm;60995;52.154;4.498;2022-09-12T08:42:56;50.15;41.96;61.08;;
72415;Laerm;60995;52.154;4.498;2022-09-12T08:45:43;51.50;41.82;77.02;;
72415;Laerm;60995;52.154;4.498;2022-09-12T08:48:10;53.16;44.31;63.94;;
72415;Laerm;60995;52.154;4.498;2022-09-12T08:50:30;53.59;43.12;62.81;;
72415;Laerm;60995;52.154;4.498;2022-09-12T08:53:03;49.91;41.70;60.74;;
72415;Laerm;60995;52.154;4.498;2022-09-12T08:57:46;51.00;43.31;63.16;;
72415;Laerm;60995;52.154;4.498;2022-09-12T09:00:05;50.67;42.64;60.81;;
72415;Laerm;60995;52.154;4.498;2022-09-12T09:05:28;53.95;44.60;65.64;;
72415;Laerm;60995;52.154;4.498;2022-09-12T09:14:26;51.54;43.03;66.28;;
72415;Laerm;60995;52.154;4.498;2022-09-12T09:17:13;53.10;44.69;69.44;;
72415;Laerm;60995;52.154;4.498;2022-09-12T09:19:41;55.97;43.20;71.01;;
72415;Laerm;60995;52.154;4.498;2022-09-12T09:22:42;53.98;42.28;68.33;;
72415;Laerm;60995;52.154;4.498;2022-09-12T09:25:08;49.78;41.02;60.74;;
72415;Laerm;60995;52.154;4.498;2022-09-12T09:27:45;51.62;41.43;64.60;;
72415;Laerm;60995;52.154;4.498;2022-09-12T09:30:04;50.72;41.29;71.41;;
72415;Laerm;60995;52.154;4.498;2022-09-12T09:32:34;51.25;41.81;66.26;;
72415;Laerm;60995;52.154;4.498;2022-09-12T09:34:52;51.25;42.55;67.70;;
72415;Laerm;60995;52.154;4.498;2022-09-12T09:37:19;51.98;41.77;74.64;;
72415;Laerm;60995;52.154;4.498;2022-09-12T09:40:22;51.64;42.03;69.43;;
72415;Laerm;60995;52.154;4.498;2022-09-12T09:42:59;55.43;43.88;74.77;;
72415;Laerm;60995;52.154;4.498;2022-09-12T09:45:24;50.78;42.79;68.61;;
72415;Laerm;60995;52.154;4.498;2022-09-12T09:47:59;51.92;42.73;74.54;;
72415;Laerm;60995;52.154;4.498;2022-09-12T09:50:16;50.55;43.04;69.38;;
72415;Laerm;60995;52.154;4.498;2022-09-12T09:52:35;50.47;41.42;61.72;;
72415;Laerm;60995;52.154;4.498;2022-09-12T09:54:57;53.82;41.99;76.24;;
72415;Laerm;60995;52.154;4.498;2022-09-12T09:59:49;50.89;43.61;62.57;;
72415;Laerm;60995;52.154;4.498;2022-09-12T10:04:40;55.01;43.03;67.13;;
72415;Laerm;60995;52.154;4.498;2022-09-12T10:07:02;51.43;43.17;70.91;;
72415;Laerm;60995;52.154;4.498;2022-09-12T10:09:32;50.72;42.51;67.84;;
72415;Laerm;60995;52.154;4.498;2022-09-12T10:11:51;50.52;42.19;60.78;;
72415;Laerm;60995;52.154;4.498;2022-09-12T10:14:33;51.89;42.48;65.35;;
72415;Laerm;60995;52.154;4.498;2022-09-12T10:16:51;51.21;43.08;63.13;;
72415;Laerm;60995;52.154;4.498;2022-09-12T10:19:21;51.11;41.21;70.59;;
72415;Laerm;60995;52.154;4.498;2022-09-12T10:21:50;50.86;41.39;69.88;;
72415;Laerm;60995;52.154;4.498;2022-09-12T10:27:34;49.62;40.56;68.14;;
72415;Laerm;60995;52.154;4.498;2022-09-12T10:30:03;49.56;40.39;63.63;;
72415;Laerm;60995;52.154;4.498;2022-09-12T10:34:45;50.61;41.41;69.67;;
72415;Laerm;60995;52.154;4.498;2022-09-12T10:37:08;57.23;41.54;75.31;;
72415;Laerm;60995;52.154;4.498;2022-09-12T10:39:25;50.63;41.16;61.87;;
72415;Laerm;60995;52.154;4.498;2022-09-12T10:41:44;49.98;40.61;61.96;;
72415;Laerm;60995;52.154;4.498;2022-09-12T10:44:09;50.33;41.69;60.57;;
72415;Laerm;60995;52.154;4.498;2022-09-12T10:46:30;50.39;41.64;62.18;;
72415;Laerm;60995;52.154;4.498;2022-09-12T10:49:18;50.42;41.58;62.31;;
72415;Laerm;60995;52.154;4.498;2022-09-12T10:51:38;50.65;43.46;60.17;;
72415;Laerm;60995;52.154;4.498;2022-09-12T10:53:58;49.96;40.95;61.73;;
72415;Laerm;60995;52.154;4.498;2022-09-12T10:56:23;51.88;42.19;63.97;;
72415;Laerm;60995;52.154;4.498;2022-09-12T11:10:11;46.92;42.07;60.67;;
72415;Laerm;60995;52.154;4.498;2022-09-12T11:30:01;47.46;41.63;52.90;;
72415;Laerm;60995;52.154;4.498;2022-09-12T11:35:25;50.17;41.40;59.02;;
72415;Laerm;60995;52.154;4.498;2022-09-12T11:42:39;53.03;41.35;70.94;;
72415;Laerm;60995;52.154;4.498;2022-09-12T11:45:14;50.15;41.68;66.69;;
72415;Laerm;60995;52.154;4.498;2022-09-12T11:47:34;51.69;38.45;71.14;;
72415;Laerm;60995;52.154;4.498;2022-09-12T11:49:53;49.32;40.43;60.46;;
72415;Laerm;60995;52.154;4.498;2022-09-12T11:52:24;49.04;39.53;64.80;;
72415;Laerm;60995;52.154;4.498;2022-09-12T11:54:47;49.99;40.43;59.74;;
72415;Laerm;60995;52.154;4.498;2022-09-12T11:59:55;49.04;40.06;59.64;;
72415;Laerm;60995;52.154;4.498;2022-09-12T12:02:27;49.18;39.81;59.33;;
72415;Laerm;60995;52.154;4.498;2022-09-12T12:05:03;49.03;39.05;60.10;;
72415;Laerm;60995;52.154;4.498;2022-09-12T12:07:20;52.02;40.85;62.37;;
72415;Laerm;60995;52.154;4.498;2022-09-12T12:09:50;50.59;40.72;70.80;;
72415;Laerm;60995;52.154;4.498;2022-09-12T12:12:14;53.61;41.41;70.82;;
72415;Laerm;60995;52.154;4.498;2022-09-12T12:14:43;48.48;40.17;59.40;;
72415;Laerm;60995;52.154;4.498;2022-09-12T12:17:02;49.72;39.67;72.73;;
72415;Laerm;60995;52.154;4.498;2022-09-12T12:21:44;49.90;41.35;59.08;;
72415;Laerm;60995;52.154;4.498;2022-09-12T12:28:58;49.28;39.16;63.13;;
72415;Laerm;60995;52.154;4.498;2022-09-12T12:31:18;53.94;41.46;72.81;;
72415;Laerm;60995;52.154;4.498;2022-09-12T12:40:45;52.52;42.61;66.28;;
72415;Laerm;60995;52.154;4.498;2022-09-12T12:43:04;48.12;39.10;62.57;;
72415;Laerm;60995;52.154;4.498;2022-09-12T12:47:49;47.93;41.09;57.34;;
72415;Laerm;60995;52.154;4.498;2022-09-12T12:50:22;48.33;40.97;60.18;;
72415;Laerm;60995;52.154;4.498;2022-09-12T12:53:04;48.40;40.94;57.00;;
72415;Laerm;60995;52.154;4.498;2022-09-12T12:55:37;47.93;40.27;63.73;;
72415;Laerm;60995;52.154;4.498;2022-09-12T12:57:57;47.89;40.14;57.80;;
72415;Laerm;60995;52.154;4.498;2022-09-12T13:00:42;51.86;40.00;67.02;;
72415;Laerm;60995;52.154;4.498;2022-09-12T13:05:26;49.32;41.33;60.61;;
72415;Laerm;60995;52.154;4.498;2022-09-12T13:07:44;50.13;41.92;67.09;;
72415;Laerm;60995;52.154;4.498;2022-09-12T13:10:06;49.08;41.28;56.95;;
72415;Laerm;60995;52.154;4.498;2022-09-12T13:12:31;48.78;41.67;57.94;;
72415;Laerm;60995;52.154;4.498;2022-09-12T13:14:58;48.93;42.90;59.20;;
72415;Laerm;60995;52.154;4.498;2022-09-12T13:17:29;49.63;42.32;64.71;;
72415;Laerm;60995;52.154;4.498;2022-09-12T13:19:47;49.24;42.86;57.01;;
72415;Laerm;60995;52.154;4.498;2022-09-12T13:22:08;50.01;43.65;63.41;;
72415;Laerm;60995;52.154;4.498;2022-09-12T13:24:25;48.38;40.96;56.38;;
72415;Laerm;60995;52.154;4.498;2022-09-12T13:26:43;48.67;42.00;56.50;;
72415;Laerm;60995;52.154;4.498;2022-09-12T13:29:16;53.23;40.90;70.34;;
72415;Laerm;60995;52.154;4.498;2022-09-12T13:31:33;50.07;41.30;59.05;;
72415;Laerm;60995;52.154;4.498;2022-09-12T13:33:58;47.40;39.44;57.14;;
72415;Laerm;60995;52.154;4.498;2022-09-12T13:39:46;47.83;41.67;58.47;;
72415;Laerm;60995;52.154;4.498;2022-09-12T13:42:40;49.08;41.43;59.96;;
72415;Laerm;60995;52.154;4.498;2022-09-12T13:45:03;48.87;42.84;56.82;;
72415;Laerm;60995;52.154;4.498;2022-09-12T13:47:33;53.08;43.20;66.91;;
72415;Laerm;60995;52.154;4.498;2022-09-12T13:49:51;48.59;41.24;58.05;;
72415;Laerm;60995;52.154;4.498;2022-09-12T13:52:23;48.62;41.84;56.37;;
72415;Laerm;60995;52.154;4.498;2022-09-12T13:54:44;51.68;40.74;73.27;;
72415;Laerm;60995;52.154;4.498;2022-09-12T13:57:03;48.81;41.53;62.14;;
72415;Laerm;60995;52.154;4.498;2022-09-12T13:59:21;49.89;42.68;61.21;;
72415;Laerm;60995;52.154;4.498;2022-09-12T14:01:45;48.84;41.86;57.94;;
72415;Laerm;60995;52.154;4.498;2022-09-12T14:04:14;48.96;41.92;60.24;;
72415;Laerm;60995;52.154;4.498;2022-09-12T14:06:51;48.31;41.54;55.70;;
72415;Laerm;60995;52.154;4.498;2022-09-12T14:09:23;48.33;40.28;62.41;;
72415;Laerm;60995;52.154;4.498;2022-09-12T14:11:40;48.48;40.76;57.60;;
72415;Laerm;60995;52.154;4.498;2022-09-12T14:14:05;49.63;40.19;58.19;;
72415;Laerm;60995;52.154;4.498;2022-09-12T14:16:39;49.27;41.97;60.19;;
72415;Laerm;60995;52.154;4.498;2022-09-12T14:18:56;48.95;41.60;56.82;;
72415;Laerm;60995;52.154;4.498;2022-09-12T14:23:45;49.78;40.57;60.30;;
72415;Laerm;60995;52.154;4.498;2022-09-12T14:26:04;46.56;38.75;56.10;;
72415;Laerm;60995;52.154;4.498;2022-09-12T14:28:25;48.83;38.36;62.72;;
72415;Laerm;60995;52.154;4.498;2022-09-12T14:31:21;49.82;39.24;68.28;;
72415;Laerm;60995;52.154;4.498;2022-09-12T14:34:09;48.80;40.44;57.09;;
72415;Laerm;60995;52.154;4.498;2022-09-12T14:36:35;47.45;39.78;58.21;;
72415;Laerm;60995;52.154;4.498;2022-09-12T14:39:05;46.38;38.09;55.56;;
72415;Laerm;60995;52.154;4.498;2022-09-12T14:41:34;48.26;38.47;56.27;;
72415;Laerm;60995;52.154;4.498;2022-09-12T14:43:57;46.45;38.11;55.39;;
72415;Laerm;60995;52.154;4.498;2022-09-12T14:46:18;48.61;39.25;57.55;;
72415;Laerm;60995;52.154;4.498;2022-09-12T14:48:44;48.56;39.76;57.71;;
72415;Laerm;60995;52.154;4.498;2022-09-12T14:51:04;49.82;39.05;70.85;;
72415;Laerm;60995;52.154;4.498;2022-09-12T14:53:36;49.10;41.40;60.71;;
72415;Laerm;60995;52.154;4.498;2022-09-12T14:56:11;48.19;40.31;56.85;;
72415;Laerm;60995;52.154;4.498;2022-09-12T14:58:28;47.97;39.63;57.29;;
72415;Laerm;60995;52.154;4.498;2022-09-12T15:06:04;47.64;40.26;56.60;;
72415;Laerm;60995;52.154;4.498;2022-09-12T15:08:23;48.25;42.17;57.19;;
72415;Laerm;60995;52.154;4.498;2022-09-12T15:10:40;48.64;40.72;57.30;;
72415;Laerm;60995;52.154;4.498;2022-09-12T15:15:25;47.50;39.61;56.09;;
72415;Laerm;60995;52.154;4.498;2022-09-12T15:17:41;48.03;40.59;56.24;;
72415;Laerm;60995;52.154;4.498;2022-09-12T15:19:57;48.50;41.25;56.40;;